Time,TemperatureF,DewpointF,PressureIn,WindDirection,WindDirectionDegrees,WindSpeedMPH,WindSpeedGustMPH,Humidity,HourlyPrecipIn,Conditions,Clouds,dailyrainin,SoftwareType,DateUTC
2013-05-12 00:00:00,39.0,34.8,29.82,WNW,294,1.9,6.8,84,0.00,,,0.00,SomeHackedPerlScript,2013-05-12 04:00:00,
2013-05-12 00:01:00,39.1,35.0,29.82,West,266,2.9,7.4,84,0.00,,,0.00,SomeHackedPerlScript,2013-05-12 04:01:00,
2013-05-12 00:06:00,38.9,34.9,29.82,SW,232,3.2,7.7,85,0.00,,,0.00,SomeHackedPerlScript,2013-05-12 04:06:00,
2013-05-12 00:11:00,38.8,34.8,29.82,WNW,292,3.6,8.2,85,0.00,,,0.00,SomeHackedPerlScript,2013-05-12 04:11:00,
2013-05-12 00:16:00,38.8,34.9,29.82,WSW,254,3.7,8.6,85,0.00,,,0.00,SomeHackedPerlScript,2013-05-12 04:16:00,
2013-05-12 00:21:00,38.9,35.1,29.82,West,263,4.7,7.8,86,0.00,,,0.00,SomeHackedPerlScript,2013-05-12 04:21:00,
2013-05-12 00:26:00,39.0,35.1,29.82,WSW,245,6.6,7.5,85,0.00,,,0.00,SomeHackedPerlScript,2013-05-12 04:26:00,
2013-05-12 00:31:00,38.9,35.0,29.82,West,265,3.0,10.5,85,0.00,,,0.00,SomeHackedPerlScript,2013-05-12 04:31:00,
2013-05-12 00:36:00,38.9,34.9,29.82,WSW,251,4.8,10.5,85,0.00,,,0.00,SomeHackedPerlScript,2013-05-12 04:36:00,
2013-05-12 00:41:00,39.0,34.9,29.82,WSW,257,6.4,10.9,85,0.00,,,0.00,SomeHackedPerlScript,2013-05-12 04:41:00,
2013-05-12 00:46:00,39.0,35.0,29.82,NW,310,5.4,10.2,85,0.00,,,0.00,SomeHackedPerlScript,2013-05-12 04:46:00,
2013-05-12 00:51:00,38.9,34.8,29.82,WNW,282,0.8,10.4,84,0.00,,,0.00,SomeHackedPerlScript,2013-05-12 04:51:00,
2013-05-12 00:56:00,38.9,34.8,29.82,WSW,251,3.3,8.9,84,0.00,,,0.00,SomeHackedPerlScript,2013-05-12 04:56:00,
2013-05-12 01:01:00,38.9,34.6,29.82,West,259,4.8,9.3,84,0.00,,,0.00,SomeHackedPerlScript,2013-05-12 05:01:00,
2013-05-12 01:06:00,38.9,34.3,29.82,West,271,5.7,10.0,83,0.00,,,0.00,SomeHackedPerlScript,2013-05-12 05:06:00,
2013-05-12 01:11:00,39.0,34.2,29.82,NW,309,7.6,8.2,82,0.00,,,0.00,SomeHackedPerlScript,2013-05-12 05:11:00,
2013-05-12 01:16:00,39.0,34.3,29.82,NW,316,4.6,9.9,83,0.00,,,0.00,SomeHackedPerlScript,2013-05-12 05:16:00,
2013-05-12 01:21:00,38.9,34.1,29.82,SW,234,3.4,10.4,82,0.00,,,0.00,SomeHackedPerlScript,2013-05-12 05:21:00,
2013-05-12 01:26:00,39.0,34.1,29.82,West,265,2.3,10.2,82,0.00,,,0.00,SomeHackedPerlScript,2013-05-12 05:26:00,
2013-05-12 01:31:00,39.2,34.3,29.82,SW,231,7.0,12.8,82,0.00,,,0.00,SomeHackedPerlScript,2013-05-12 05:31:00,
2013-05-12 01:36:00,39.2,33.9,29.82,NW,306,7.0,15.0,81,0.00,,,0.00,SomeHackedPerlScript,2013-05-12 05:36:00,
2013-05-12 01:41:00,39.5,33.8,29.82,WNW,297,6.4,21.2,79,0.00,,,0.00,SomeHackedPerlScript,2013-05-12 05:41:00,
2013-05-12 01:46:00,39.6,33.0,29.82,WSW,256,6.7,14.5,76,0.00,,,0.00,SomeHackedPerlScript,2013-05-12 05:46:00,
2013-05-12 01:51:00,39.8,32.2,29.81,NW,307,5.1,22.8,74,0.00,,,0.00,SomeHackedPerlScript,2013-05-12 05:51:00,
2013-05-12 01:56:00,40.0,32.0,29.82,West,273,6.5,19.0,72,0.00,,,0.00,SomeHackedPerlScript,2013-05-12 05:56:00,
2013-05-12 02:01:00,40.0,32.2,29.82,NNW,331,0.9,16.1,73,0.00,,,0.00,SomeHackedPerlScript,2013-05-12 06:01:00,
2013-05-12 02:06:00,40.1,32.4,29.82,WNW,283,9.5,12.6,73,0.00,,,0.00,SomeHackedPerlScript,2013-05-12 06:06:00,
2013-05-12 02:11:00,40.0,32.0,29.82,WNW,288,9.6,20.0,73,0.00,,,0.00,SomeHackedPerlScript,2013-05-12 06:11:00,
2013-05-12 02:16:00,40.0,32.2,29.82,NW,315,5.6,14.9,73,0.00,,,0.00,SomeHackedPerlScript,2013-05-12 06:16:00,
2013-05-12 02:21:00,39.8,31.9,29.81,SW,232,1.9,16.6,73,0.00,,,0.00,SomeHackedPerlScript,2013-05-12 06:21:00,
2013-05-12 02:26:00,39.6,32.1,29.81,WNW,291,5.1,16.2,74,0.00,,,0.00,SomeHackedPerlScript,2013-05-12 06:26:00,
2013-05-12 02:31:00,39.7,32.4,29.81,WNW,298,6.1,10.2,74,0.00,,,0.00,SomeHackedPerlScript,2013-05-12 06:31:00,
2013-05-12 02:36:00,39.6,32.2,29.81,SW,220,5.2,25.7,74,0.00,,,0.00,SomeHackedPerlScript,2013-05-12 06:36:00,
2013-05-12 02:41:00,39.6,32.1,29.81,West,261,6.6,15.0,74,0.00,,,0.00,SomeHackedPerlScript,2013-05-12 06:41:00,
2013-05-12 02:46:00,39.7,32.5,29.81,West,279,1.1,10.2,75,0.00,,,0.00,SomeHackedPerlScript,2013-05-12 06:46:00,
2013-05-12 02:51:00,39.4,32.9,29.81,West,280,1.6,11.1,77,0.00,,,0.00,SomeHackedPerlScript,2013-05-12 06:51:00,
2013-05-12 02:56:00,39.2,34.6,29.81,West,262,3.3,12.8,83,0.00,,,0.00,SomeHackedPerlScript,2013-05-12 06:56:00,
2013-05-12 03:01:00,38.5,34.5,29.82,WNW,296,10.0,13.3,85,0.00,,,0.00,SomeHackedPerlScript,2013-05-12 07:01:00,
2013-05-12 03:06:00,38.4,34.5,29.82,NNW,337,5.7,17.5,85,0.00,,,0.00,SomeHackedPerlScript,2013-05-12 07:06:00,
2013-05-12 03:11:00,38.2,34.1,29.81,West,266,6.9,19.0,85,0.00,,,0.00,SomeHackedPerlScript,2013-05-12 07:11:00,
2013-05-12 03:16:00,38.1,34.1,29.81,WNW,282,2.2,12.8,85,0.00,,,0.00,SomeHackedPerlScript,2013-05-12 07:16:00,
2013-05-12 03:21:00,38.0,34.0,29.81,WSW,247,10.9,11.7,85,0.00,,,0.00,SomeHackedPerlScript,2013-05-12 07:21:00,
2013-05-12 03:26:00,37.7,33.5,29.81,WNW,286,4.4,16.9,84,0.00,,,0.00,SomeHackedPerlScript,2013-05-12 07:26:00,
2013-05-12 03:31:00,37.7,33.3,29.81,West,264,5.6,12.8,84,0.00,,,0.00,SomeHackedPerlScript,2013-05-12 07:31:00,
2013-05-12 03:36:00,37.7,33.5,29.81,WNW,283,9.9,12.7,84,0.00,,,0.00,SomeHackedPerlScript,2013-05-12 07:36:00,
2013-05-12 03:41:00,37.6,33.3,29.81,West,262,4.7,14.6,84,0.00,,,0.00,SomeHackedPerlScript,2013-05-12 07:41:00,
2013-05-12 03:46:00,37.5,33.2,29.81,West,279,3.8,19.9,84,0.00,,,0.00,SomeHackedPerlScript,2013-05-12 07:46:00,
2013-05-12 03:51:00,37.4,33.0,29.82,NW,319,5.2,16.1,84,0.00,,,0.00,SomeHackedPerlScript,2013-05-12 07:51:00,
2013-05-12 03:56:00,37.4,33.0,29.82,NW,310,5.4,18.2,83,0.00,,,0.00,SomeHackedPerlScript,2013-05-12 07:56:00,
2013-05-12 04:01:00,37.4,33.1,29.81,WNW,303,5.7,15.6,84,0.00,,,0.00,SomeHackedPerlScript,2013-05-12 08:01:00,
2013-05-12 04:06:00,37.3,32.8,29.81,West,261,5.9,14.7,83,0.00,,,0.00,SomeHackedPerlScript,2013-05-12 08:06:00,
2013-05-12 04:11:00,37.2,32.8,29.80,West,278,8.6,15.9,83,0.00,,,0.00,SomeHackedPerlScript,2013-05-12 08:11:00,
2013-05-12 04:16:00,37.3,32.7,29.81,NW,311,5.5,16.4,83,0.00,,,0.00,SomeHackedPerlScript,2013-05-12 08:16:00,
2013-05-12 04:21:00,37.4,32.9,29.81,WSW,252,3.1,14.4,83,0.00,,,0.00,SomeHackedPerlScript,2013-05-12 08:21:00,
2013-05-12 04:26:00,37.3,32.8,29.81,WNW,287,4.1,14.7,83,0.00,,,0.00,SomeHackedPerlScript,2013-05-12 08:26:00,
2013-05-12 04:31:00,37.2,32.8,29.81,WNW,298,8.3,19.3,83,0.00,,,0.00,SomeHackedPerlScript,2013-05-12 08:31:00,
2013-05-12 04:36:00,37.1,32.6,29.81,West,264,9.8,17.5,83,0.00,,,0.00,SomeHackedPerlScript,2013-05-12 08:36:00,
2013-05-12 04:41:00,37.3,32.8,29.80,NW,307,6.1,19.3,83,0.00,,,0.00,SomeHackedPerlScript,2013-05-12 08:41:00,
2013-05-12 04:46:00,37.3,32.9,29.81,WSW,254,10.4,15.1,84,0.00,,,0.00,SomeHackedPerlScript,2013-05-12 08:46:00,
2013-05-12 04:51:00,37.3,32.9,29.80,WNW,293,6.7,13.8,84,0.00,,,0.00,SomeHackedPerlScript,2013-05-12 08:51:00,
2013-05-12 04:56:00,37.2,32.8,29.80,WNW,303,6.1,15.0,84,0.00,,,0.00,SomeHackedPerlScript,2013-05-12 08:56:00,
2013-05-12 05:01:00,37.1,32.8,29.81,West,276,7.4,14.8,84,0.00,,,0.00,SomeHackedPerlScript,2013-05-12 09:01:00,
2013-05-12 05:06:00,37.1,32.8,29.81,WNW,297,10.2,15.6,84,0.00,,,0.00,SomeHackedPerlScript,2013-05-12 09:06:00,
2013-05-12 05:11:00,37.3,33.0,29.81,West,259,4.3,13.8,84,0.00,,,0.00,SomeHackedPerlScript,2013-05-12 09:11:00,
2013-05-12 05:16:00,37.2,32.8,29.82,NW,311,4.7,20.5,84,0.00,,,0.00,SomeHackedPerlScript,2013-05-12 09:16:00,
2013-05-12 05:21:00,37.3,32.7,29.82,WSW,257,2.9,27.0,83,0.00,,,0.00,SomeHackedPerlScript,2013-05-12 09:21:00,
2013-05-12 05:26:00,37.4,32.8,29.81,WNW,300,8.1,17.8,83,0.00,,,0.00,SomeHackedPerlScript,2013-05-12 09:26:00,
2013-05-12 05:31:00,37.4,32.7,29.82,SSW,204,2.1,13.1,83,0.00,,,0.00,SomeHackedPerlScript,2013-05-12 09:31:00,
2013-05-12 05:36:00,37.5,32.9,29.82,NW,313,9.4,17.3,83,0.00,,,0.00,SomeHackedPerlScript,2013-05-12 09:36:00,
2013-05-12 05:41:00,37.6,32.9,29.82,West,270,7.9,14.4,83,0.00,,,0.00,SomeHackedPerlScript,2013-05-12 09:41:00,
2013-05-12 05:46:00,37.6,32.9,29.82,NW,315,6.6,12.2,83,0.00,,,0.00,SomeHackedPerlScript,2013-05-12 09:46:00,
2013-05-12 05:51:00,37.6,33.0,29.82,NW,311,5.1,13.9,83,0.00,,,0.00,SomeHackedPerlScript,2013-05-12 09:51:00,
2013-05-12 05:56:00,37.6,32.9,29.82,NW,310,8.2,19.1,83,0.00,,,0.00,SomeHackedPerlScript,2013-05-12 09:56:00,
2013-05-12 06:01:00,37.5,32.8,29.82,WNW,284,8.6,15.2,83,0.00,,,0.00,SomeHackedPerlScript,2013-05-12 10:01:00,
2013-05-12 06:06:00,37.6,33.0,29.82,WNW,302,5.2,13.0,83,0.00,,,0.00,SomeHackedPerlScript,2013-05-12 10:06:00,
2013-05-12 06:11:00,37.5,32.9,29.82,West,260,4.9,20.9,83,0.00,,,0.00,SomeHackedPerlScript,2013-05-12 10:11:00,
2013-05-12 06:16:00,37.5,32.8,29.82,NW,323,5.6,16.4,82,0.00,,,0.00,SomeHackedPerlScript,2013-05-12 10:16:00,
2013-05-12 06:21:00,37.6,32.9,29.82,WNW,303,9.4,13.8,82,0.00,,,0.00,SomeHackedPerlScript,2013-05-12 10:21:00,
2013-05-12 06:26:00,37.6,32.7,29.82,WNW,287,7.0,14.8,82,0.00,,,0.00,SomeHackedPerlScript,2013-05-12 10:26:00,
2013-05-12 06:31:00,37.6,33.0,29.83,SW,217,3.7,13.1,83,0.00,,,0.00,SomeHackedPerlScript,2013-05-12 10:31:00,
2013-05-12 06:36:00,37.4,32.7,29.83,WSW,244,1.7,13.7,83,0.00,,,0.00,SomeHackedPerlScript,2013-05-12 10:36:00,
2013-05-12 06:41:00,37.2,32.6,29.83,West,273,9.9,15.4,83,0.00,,,0.00,SomeHackedPerlScript,2013-05-12 10:41:00,
2013-05-12 06:46:00,37.3,32.6,29.83,WSW,254,4.0,13.8,82,0.00,,,0.00,SomeHackedPerlScript,2013-05-12 10:46:00,
2013-05-12 06:51:00,37.3,32.4,29.83,WNW,296,5.5,15.1,82,0.00,,,0.00,SomeHackedPerlScript,2013-05-12 10:51:00,
2013-05-12 06:56:00,37.3,32.4,29.83,NW,309,0.8,18.2,82,0.00,,,0.00,SomeHackedPerlScript,2013-05-12 10:56:00,
2013-05-12 07:01:00,37.4,32.4,29.83,WNW,298,5.2,14.7,82,0.00,,,0.00,SomeHackedPerlScript,2013-05-12 11:01:00,
2013-05-12 07:06:00,37.4,32.2,29.83,NW,317,6.7,16.7,81,0.00,,,0.00,SomeHackedPerlScript,2013-05-12 11:06:00,
2013-05-12 07:11:00,37.7,32.3,29.83,North,352,8.4,14.7,80,0.00,,,0.00,SomeHackedPerlScript,2013-05-12 11:11:00,
2013-05-12 07:16:00,37.8,32.0,29.83,WSW,237,4.2,22.6,79,0.00,,,0.00,SomeHackedPerlScript,2013-05-12 11:16:00,
2013-05-12 07:21:00,38.0,32.2,29.83,West,272,4.9,13.8,79,0.00,,,0.00,SomeHackedPerlScript,2013-05-12 11:21:00,
2013-05-12 07:26:00,38.3,32.4,29.83,WNW,283,0.8,13.9,79,0.00,,,0.00,SomeHackedPerlScript,2013-05-12 11:26:00,
2013-05-12 07:31:00,38.5,32.2,29.84,WSW,256,4.3,17.5,77,0.00,,,0.00,SomeHackedPerlScript,2013-05-12 11:31:00,
2013-05-12 07:36:00,38.6,32.2,29.84,WNW,286,8.9,18.8,77,0.00,,,0.00,SomeHackedPerlScript,2013-05-12 11:36:00,
2013-05-12 07:41:00,38.9,32.4,29.84,WNW,302,8.6,14.9,77,0.00,,,0.00,SomeHackedPerlScript,2013-05-12 11:41:00,
2013-05-12 07:46:00,39.0,32.2,29.84,WNW,294,6.3,15.8,76,0.00,,,0.00,SomeHackedPerlScript,2013-05-12 11:46:00,
2013-05-12 07:51:00,39.0,31.8,29.85,WNW,289,8.0,15.9,75,0.00,,,0.00,SomeHackedPerlScript,2013-05-12 11:51:00,
2013-05-12 07:56:00,39.0,31.9,29.84,WNW,291,7.5,18.7,75,0.00,,,0.00,SomeHackedPerlScript,2013-05-12 11:56:00,
2013-05-12 08:01:00,38.9,31.9,29.85,West,267,5.3,20.3,75,0.00,,,0.00,SomeHackedPerlScript,2013-05-12 12:01:00,
2013-05-12 08:06:00,39.0,32.2,29.85,WNW,282,8.5,13.6,76,0.00,,,0.00,SomeHackedPerlScript,2013-05-12 12:06:00,
2013-05-12 08:11:00,39.0,32.1,29.85,West,272,5.4,17.9,76,0.00,,,0.00,SomeHackedPerlScript,2013-05-12 12:11:00,
2013-05-12 08:16:00,39.1,32.0,29.86,NW,319,11.7,19.8,75,0.00,,,0.00,SomeHackedPerlScript,2013-05-12 12:16:00,
2013-05-12 08:21:00,39.1,31.9,29.86,ESE,118,1.7,13.9,75,0.00,,,0.00,SomeHackedPerlScript,2013-05-12 12:21:00,
2013-05-12 08:26:00,39.4,32.6,29.86,SE,138,1.0,12.0,76,0.00,,,0.00,SomeHackedPerlScript,2013-05-12 12:26:00,
2013-05-12 08:31:00,39.7,32.6,29.86,SW,218,4.4,10.5,75,0.00,,,0.00,SomeHackedPerlScript,2013-05-12 12:31:00,
2013-05-12 08:36:00,39.9,32.4,29.86,NW,326,4.0,15.6,74,0.00,,,0.00,SomeHackedPerlScript,2013-05-12 12:36:00,
2013-05-12 08:41:00,39.7,32.2,29.86,WNW,295,11.4,22.8,74,0.00,,,0.00,SomeHackedPerlScript,2013-05-12 12:41:00,
2013-05-12 08:46:00,39.9,32.6,29.87,NW,311,9.0,21.1,74,0.00,,,0.00,SomeHackedPerlScript,2013-05-12 12:46:00,
2013-05-12 08:51:00,40.0,32.7,29.87,NW,307,5.3,18.6,75,0.00,,,0.00,SomeHackedPerlScript,2013-05-12 12:51:00,
2013-05-12 08:56:00,40.2,32.7,29.87,East,79,1.1,11.8,74,0.00,,,0.00,SomeHackedPerlScript,2013-05-12 12:56:00,
2013-05-12 09:01:00,40.6,33.0,29.87,West,262,10.0,18.0,74,0.00,,,0.00,SomeHackedPerlScript,2013-05-12 13:01:00,
2013-05-12 09:06:00,40.4,32.4,29.87,NNE,23,2.8,14.7,72,0.00,,,0.00,SomeHackedPerlScript,2013-05-12 13:06:00,
2013-05-12 09:11:00,40.5,33.0,29.87,WNW,288,7.2,16.6,74,0.00,,,0.00,SomeHackedPerlScript,2013-05-12 13:11:00,
2013-05-12 09:16:00,40.4,32.6,29.87,West,262,3.3,18.8,73,0.00,,,0.00,SomeHackedPerlScript,2013-05-12 13:16:00,
2013-05-12 09:21:00,40.8,33.2,29.88,NW,306,5.3,17.0,74,0.00,,,0.00,SomeHackedPerlScript,2013-05-12 13:21:00,
2013-05-12 09:26:00,40.9,32.6,29.88,NW,304,5.5,21.3,72,0.00,,,0.00,SomeHackedPerlScript,2013-05-12 13:26:00,
2013-05-12 09:31:00,40.7,31.8,29.88,NNW,340,9.6,14.8,70,0.00,,,0.00,SomeHackedPerlScript,2013-05-12 13:31:00,
2013-05-12 09:36:00,40.9,32.4,29.88,WNW,287,6.5,16.5,71,0.00,,,0.00,SomeHackedPerlScript,2013-05-12 13:36:00,
2013-05-12 09:41:00,41.7,33.9,29.88,WNW,297,3.8,14.8,73,0.00,,,0.00,SomeHackedPerlScript,2013-05-12 13:41:00,
2013-05-12 09:46:00,41.0,33.7,29.88,North,359,4.0,16.2,74,0.00,,,0.00,SomeHackedPerlScript,2013-05-12 13:46:00,
2013-05-12 09:51:00,41.2,34.9,29.88,North,351,3.6,11.8,78,0.00,,,0.00,SomeHackedPerlScript,2013-05-12 13:51:00,
2013-05-12 09:56:00,41.5,32.0,29.88,North,1,3.9,17.5,68,0.00,,,0.00,SomeHackedPerlScript,2013-05-12 13:56:00,
2013-05-12 10:01:00,42.1,31.4,29.88,NW,320,13.9,20.1,65,0.00,,,0.00,SomeHackedPerlScript,2013-05-12 14:01:00,
2013-05-12 10:06:00,43.0,33.0,29.88,SW,228,3.6,16.9,67,0.00,,,0.00,SomeHackedPerlScript,2013-05-12 14:06:00,
2013-05-12 10:11:00,42.8,33.5,29.88,NNW,348,8.3,17.1,69,0.00,,,0.00,SomeHackedPerlScript,2013-05-12 14:11:00,
2013-05-12 10:16:00,41.6,32.3,29.88,WSW,255,12.4,15.6,69,0.00,,,0.00,SomeHackedPerlScript,2013-05-12 14:16:00,
2013-05-12 10:21:00,41.4,31.5,29.88,NE,36,2.5,24.2,67,0.00,,,0.00,SomeHackedPerlScript,2013-05-12 14:21:00,
2013-05-12 10:26:00,42.5,32.7,29.88,WSW,247,8.1,11.7,68,0.00,,,0.00,SomeHackedPerlScript,2013-05-12 14:26:00,
2013-05-12 10:31:00,43.0,30.1,29.88,NW,313,10.8,20.3,60,0.00,,,0.00,SomeHackedPerlScript,2013-05-12 14:31:00,
2013-05-12 10:36:00,43.9,33.4,29.88,WNW,287,5.5,15.1,66,0.00,,,0.00,SomeHackedPerlScript,2013-05-12 14:36:00,
2013-05-12 10:41:00,43.9,32.6,29.88,NW,322,11.6,18.8,64,0.00,,,0.00,SomeHackedPerlScript,2013-05-12 14:41:00,
2013-05-12 10:46:00,43.0,31.9,29.89,West,276,11.0,22.2,64,0.00,,,0.00,SomeHackedPerlScript,2013-05-12 14:46:00,
2013-05-12 10:51:00,43.5,33.6,29.89,WNW,285,9.6,17.1,67,0.00,,,0.00,SomeHackedPerlScript,2013-05-12 14:51:00,
2013-05-12 10:56:00,43.2,32.8,29.89,SW,235,3.5,16.6,66,0.00,,,0.00,SomeHackedPerlScript,2013-05-12 14:56:00,
2013-05-12 11:01:00,43.5,32.7,29.89,NW,308,7.7,25.5,65,0.00,,,0.00,SomeHackedPerlScript,2013-05-12 15:01:00,
2013-05-12 11:06:00,42.2,33.3,29.90,NW,308,10.4,26.0,70,0.00,,,0.00,SomeHackedPerlScript,2013-05-12 15:06:00,
2013-05-12 11:11:00,42.1,35.2,29.90,North,352,5.6,17.7,76,0.00,,,0.00,SomeHackedPerlScript,2013-05-12 15:11:00,
2013-05-12 11:16:00,42.1,35.9,29.90,WNW,297,11.9,14.9,78,0.00,,,0.00,SomeHackedPerlScript,2013-05-12 15:16:00,
2013-05-12 11:21:00,42.3,35.2,29.90,WNW,299,7.6,17.4,75,0.00,,,0.00,SomeHackedPerlScript,2013-05-12 15:21:00,
2013-05-12 11:26:00,43.3,36.1,29.90,WSW,249,5.6,15.8,75,0.00,,,0.00,SomeHackedPerlScript,2013-05-12 15:26:00,
2013-05-12 11:31:00,43.9,35.4,29.90,WNW,296,4.3,17.5,71,0.00,,,0.00,SomeHackedPerlScript,2013-05-12 15:31:00,
2013-05-12 11:36:00,42.3,33.5,29.91,NNW,328,7.5,21.5,70,0.00,,,0.00,SomeHackedPerlScript,2013-05-12 15:36:00,
2013-05-12 11:41:00,40.1,34.2,29.91,NNW,340,6.1,18.1,79,0.00,,,0.00,SomeHackedPerlScript,2013-05-12 15:41:00,
2013-05-12 11:46:00,39.3,34.3,29.91,WNW,287,16.2,16.2,82,0.00,,,0.00,SomeHackedPerlScript,2013-05-12 15:46:00,
2013-05-12 11:51:00,40.6,36.3,29.91,NW,305,9.9,18.2,84,0.00,,,0.00,SomeHackedPerlScript,2013-05-12 15:51:00,
2013-05-12 11:56:00,41.2,33.2,29.91,NW,321,5.0,24.9,73,0.00,,,0.00,SomeHackedPerlScript,2013-05-12 15:56:00,
2013-05-12 12:01:00,42.2,34.1,29.91,WNW,286,8.9,18.1,72,0.00,,,0.00,SomeHackedPerlScript,2013-05-12 16:01:00,
2013-05-12 12:06:00,42.7,33.2,29.91,WNW,292,5.1,22.9,68,0.00,,,0.00,SomeHackedPerlScript,2013-05-12 16:06:00,
2013-05-12 12:11:00,43.4,32.5,29.91,NW,314,11.9,23.8,65,0.00,,,0.00,SomeHackedPerlScript,2013-05-12 16:11:00,
2013-05-12 12:16:00,42.8,31.5,29.91,WNW,299,11.6,24.7,64,0.00,,,0.00,SomeHackedPerlScript,2013-05-12 16:16:00,
2013-05-12 12:21:00,42.2,33.0,29.92,North,7,12.3,18.8,69,0.00,,,0.00,SomeHackedPerlScript,2013-05-12 16:21:00,
2013-05-12 12:26:00,41.0,32.9,29.92,WNW,299,8.1,18.6,72,0.00,,,0.00,SomeHackedPerlScript,2013-05-12 16:26:00,
2013-05-12 12:31:00,41.2,31.9,29.92,WSW,248,11.8,21.0,69,0.00,,,0.00,SomeHackedPerlScript,2013-05-12 16:31:00,
2013-05-12 12:36:00,42.7,32.4,29.92,WSW,255,9.4,18.2,66,0.00,,,0.00,SomeHackedPerlScript,2013-05-12 16:36:00,
2013-05-12 12:41:00,42.5,32.4,29.92,NW,315,8.9,20.6,67,0.00,,,0.00,SomeHackedPerlScript,2013-05-12 16:41:00,
2013-05-12 12:46:00,41.9,32.2,29.92,WNW,283,16.8,24.9,68,0.00,,,0.00,SomeHackedPerlScript,2013-05-12 16:46:00,
2013-05-12 12:51:00,40.6,33.8,29.93,North,354,9.4,21.7,76,0.00,,,0.00,SomeHackedPerlScript,2013-05-12 16:51:00,
2013-05-12 12:56:00,40.1,33.4,29.93,West,266,3.5,21.9,76,0.00,,,0.00,SomeHackedPerlScript,2013-05-12 16:56:00,
2013-05-12 13:01:00,41.1,33.0,29.93,NW,320,11.9,17.9,72,0.00,,,0.00,SomeHackedPerlScript,2013-05-12 17:01:00,
2013-05-12 13:06:00,41.0,31.1,29.93,NW,321,8.4,21.6,67,0.00,,,0.00,SomeHackedPerlScript,2013-05-12 17:06:00,
2013-05-12 13:11:00,40.0,30.8,29.93,WNW,295,9.0,19.2,69,0.00,,,0.00,SomeHackedPerlScript,2013-05-12 17:11:00,
2013-05-12 13:16:00,39.3,29.7,29.94,NW,317,9.7,18.7,68,0.00,,,0.00,SomeHackedPerlScript,2013-05-12 17:16:00,
2013-05-12 13:21:00,39.2,29.5,29.95,West,263,8.6,15.6,67,0.00,,,0.00,SomeHackedPerlScript,2013-05-12 17:21:00,
2013-05-12 13:26:00,39.5,30.5,29.94,WNW,292,3.6,17.3,69,0.00,,,0.00,SomeHackedPerlScript,2013-05-12 17:26:00,
2013-05-12 13:31:00,38.8,29.3,29.95,ESE,116,4.3,21.8,68,0.00,,,0.00,SomeHackedPerlScript,2013-05-12 17:31:00,
2013-05-12 13:36:00,38.8,29.6,29.95,NW,317,14.7,18.5,69,0.00,,,0.00,SomeHackedPerlScript,2013-05-12 17:36:00,
2013-05-12 13:41:00,38.6,29.2,29.95,West,276,8.1,23.1,68,0.00,,,0.00,SomeHackedPerlScript,2013-05-12 17:41:00,
2013-05-12 13:46:00,38.7,29.8,29.95,NNW,332,7.5,12.0,70,0.00,,,0.00,SomeHackedPerlScript,2013-05-12 17:46:00,
2013-05-12 13:51:00,38.7,29.5,29.96,WNW,285,4.7,16.1,69,0.00,,,0.00,SomeHackedPerlScript,2013-05-12 17:51:00,
2013-05-12 13:56:00,38.9,29.0,29.96,NW,309,3.5,20.8,67,0.00,,,0.00,SomeHackedPerlScript,2013-05-12 17:56:00,
2013-05-12 14:01:00,38.8,27.6,29.96,West,264,3.3,19.0,63,0.00,,,0.00,SomeHackedPerlScript,2013-05-12 18:01:00,
2013-05-12 14:06:00,39.2,28.7,29.96,NW,313,8.5,20.1,65,0.00,,,0.00,SomeHackedPerlScript,2013-05-12 18:06:00,
2013-05-12 14:11:00,39.5,27.5,29.96,North,359,4.8,21.0,61,0.00,,,0.00,SomeHackedPerlScript,2013-05-12 18:11:00,
2013-05-12 14:16:00,39.3,27.4,29.96,NE,52,3.9,22.9,62,0.00,,,0.00,SomeHackedPerlScript,2013-05-12 18:16:00,
2013-05-12 14:21:00,39.5,28.0,29.96,WNW,293,8.6,18.0,63,0.00,,,0.00,SomeHackedPerlScript,2013-05-12 18:21:00,
2013-05-12 14:26:00,40.0,28.4,29.96,NW,319,12.2,19.7,63,0.00,,,0.00,SomeHackedPerlScript,2013-05-12 18:26:00,
2013-05-12 14:31:00,40.1,27.6,29.96,WNW,303,10.3,24.2,60,0.00,,,0.00,SomeHackedPerlScript,2013-05-12 18:31:00,
2013-05-12 14:36:00,40.1,27.4,29.96,West,262,3.6,17.6,60,0.00,,,0.00,SomeHackedPerlScript,2013-05-12 18:36:00,
2013-05-12 14:41:00,40.0,27.4,29.96,West,278,7.2,22.8,60,0.00,,,0.00,SomeHackedPerlScript,2013-05-12 18:41:00,
2013-05-12 14:46:00,39.8,26.9,29.96,WSW,256,14.6,23.3,59,0.00,,,0.00,SomeHackedPerlScript,2013-05-12 18:46:00,
2013-05-12 14:51:00,39.8,27.5,29.96,NW,309,3.0,20.8,61,0.00,,,0.00,SomeHackedPerlScript,2013-05-12 18:51:00,
2013-05-12 14:56:00,39.9,27.9,29.96,NW,311,2.4,13.3,61,0.00,,,0.00,SomeHackedPerlScript,2013-05-12 18:56:00,
2013-05-12 15:01:00,39.7,27.2,29.96,NW,304,7.4,21.5,60,0.00,,,0.00,SomeHackedPerlScript,2013-05-12 19:01:00,
2013-05-12 15:06:00,39.8,28.0,29.96,NW,308,7.2,16.1,62,0.00,,,0.00,SomeHackedPerlScript,2013-05-12 19:06:00,
2013-05-12 15:11:00,40.0,28.6,29.96,NNW,340,6.2,16.4,63,0.00,,,0.00,SomeHackedPerlScript,2013-05-12 19:11:00,
2013-05-12 15:16:00,40.4,29.0,29.96,NW,306,3.9,11.3,63,0.00,,,0.00,SomeHackedPerlScript,2013-05-12 19:16:00,
2013-05-12 15:21:00,40.7,28.2,29.96,WNW,291,11.4,20.9,60,0.00,,,0.00,SomeHackedPerlScript,2013-05-12 19:21:00,
2013-05-12 15:26:00,40.8,28.2,29.96,NW,319,8.8,16.4,60,0.00,,,0.00,SomeHackedPerlScript,2013-05-12 19:26:00,
2013-05-12 15:31:00,40.6,28.0,29.96,WNW,283,9.8,17.6,60,0.00,,,0.00,SomeHackedPerlScript,2013-05-12 19:31:00,
2013-05-12 15:36:00,40.4,28.2,29.96,WNW,300,3.5,15.3,61,0.00,,,0.00,SomeHackedPerlScript,2013-05-12 19:36:00,
2013-05-12 15:41:00,41.0,29.1,29.96,NNW,328,9.4,14.3,62,0.00,,,0.00,SomeHackedPerlScript,2013-05-12 19:41:00,
2013-05-12 15:46:00,40.8,27.9,29.96,West,261,15.0,15.1,59,0.00,,,0.00,SomeHackedPerlScript,2013-05-12 19:46:00,
2013-05-12 15:51:00,40.9,27.6,29.96,North,7,7.7,20.9,58,0.00,,,0.00,SomeHackedPerlScript,2013-05-12 19:51:00,
2013-05-12 15:56:00,40.7,27.6,29.96,East,97,4.0,17.9,59,0.00,,,0.00,SomeHackedPerlScript,2013-05-12 19:56:00,
2013-05-12 16:01:00,40.7,27.8,29.97,WNW,290,9.4,19.5,59,0.00,,,0.00,SomeHackedPerlScript,2013-05-12 20:01:00,
2013-05-12 16:06:00,41.0,28.2,29.96,WSW,237,4.5,15.6,60,0.00,,,0.00,SomeHackedPerlScript,2013-05-12 20:06:00,
2013-05-12 16:11:00,40.6,27.7,29.96,South,191,8.1,20.0,59,0.00,,,0.00,SomeHackedPerlScript,2013-05-12 20:11:00,
2013-05-12 16:16:00,40.8,28.2,29.96,WNW,297,11.7,17.2,60,0.00,,,0.00,SomeHackedPerlScript,2013-05-12 20:16:00,
2013-05-12 16:21:00,41.0,28.3,29.96,NNW,347,6.3,19.6,60,0.00,,,0.00,SomeHackedPerlScript,2013-05-12 20:21:00,
2013-05-12 16:26:00,41.3,28.5,29.97,WNW,287,13.9,18.2,60,0.00,,,0.00,SomeHackedPerlScript,2013-05-12 20:26:00,
2013-05-12 16:31:00,40.9,27.4,29.97,WNW,290,11.3,20.1,58,0.00,,,0.00,SomeHackedPerlScript,2013-05-12 20:31:00,
2013-05-12 16:36:00,40.6,28.1,29.97,WNW,297,13.5,22.5,60,0.00,,,0.00,SomeHackedPerlScript,2013-05-12 20:36:00,
2013-05-12 16:41:00,40.5,27.6,29.97,WNW,291,9.9,19.2,59,0.00,,,0.00,SomeHackedPerlScript,2013-05-12 20:41:00,
2013-05-12 16:46:00,40.5,27.8,29.97,WNW,303,8.4,18.5,60,0.00,,,0.00,SomeHackedPerlScript,2013-05-12 20:46:00,
2013-05-12 16:51:00,40.4,27.9,29.98,WNW,303,11.8,18.8,60,0.00,,,0.00,SomeHackedPerlScript,2013-05-12 20:51:00,
2013-05-12 16:56:00,40.1,27.4,29.98,ESE,121,12.5,18.8,60,0.00,,,0.00,SomeHackedPerlScript,2013-05-12 20:56:00,
2013-05-12 17:01:00,40.3,27.6,29.98,NW,317,8.8,17.5,60,0.00,,,0.00,SomeHackedPerlScript,2013-05-12 21:01:00,
2013-05-12 17:06:00,40.7,28.2,29.98,WNW,295,9.9,20.9,60,0.00,,,0.00,SomeHackedPerlScript,2013-05-12 21:06:00,
2013-05-12 17:11:00,40.8,27.9,29.99,NW,308,11.6,20.0,59,0.00,,,0.00,SomeHackedPerlScript,2013-05-12 21:11:00,
2013-05-12 17:16:00,40.9,27.9,29.98,WNW,296,9.4,15.7,59,0.00,,,0.00,SomeHackedPerlScript,2013-05-12 21:16:00,
2013-05-12 17:21:00,41.1,28.0,29.99,NW,323,3.8,15.5,59,0.00,,,0.00,SomeHackedPerlScript,2013-05-12 21:21:00,
2013-05-12 17:26:00,40.8,27.0,29.99,WNW,293,5.9,17.4,57,0.00,,,0.00,SomeHackedPerlScript,2013-05-12 21:26:00,
2013-05-12 17:31:00,40.9,27.5,29.99,WNW,286,6.5,14.7,58,0.00,,,0.00,SomeHackedPerlScript,2013-05-12 21:31:00,
2013-05-12 17:36:00,40.9,27.8,29.99,West,280,8.0,13.3,59,0.00,,,0.00,SomeHackedPerlScript,2013-05-12 21:36:00,
2013-05-12 17:41:00,41.0,28.0,30.00,NW,324,2.2,16.1,59,0.00,,,0.00,SomeHackedPerlScript,2013-05-12 21:41:00,
2013-05-12 17:46:00,41.2,28.3,30.00,NNW,327,0.0,8.2,59,0.00,,,0.00,SomeHackedPerlScript,2013-05-12 21:46:00,
2013-05-12 17:51:00,41.0,27.9,30.00,WNW,299,5.7,12.0,59,0.00,,,0.00,SomeHackedPerlScript,2013-05-12 21:51:00,
2013-05-12 17:56:00,40.9,27.4,30.00,WSW,241,0.0,10.1,58,0.00,,,0.00,SomeHackedPerlScript,2013-05-12 21:56:00,
2013-05-12 18:01:00,40.9,27.7,30.00,SW,221,2.1,10.5,59,0.00,,,0.00,SomeHackedPerlScript,2013-05-12 22:01:00,
2013-05-12 18:06:00,40.9,27.3,30.01,NNW,333,8.9,13.9,58,0.00,,,0.00,SomeHackedPerlScript,2013-05-12 22:06:00,
2013-05-12 18:11:00,40.8,27.0,30.01,NNW,328,4.0,11.2,57,0.00,,,0.00,SomeHackedPerlScript,2013-05-12 22:11:00,
2013-05-12 18:16:00,40.7,26.9,30.01,WNW,300,8.2,11.4,57,0.00,,,0.00,SomeHackedPerlScript,2013-05-12 22:16:00,
2013-05-12 18:21:00,40.6,26.9,30.01,NNW,328,10.2,13.9,57,0.00,,,0.00,SomeHackedPerlScript,2013-05-12 22:21:00,
2013-05-12 18:26:00,40.7,27.5,30.01,SW,231,3.2,11.8,59,0.00,,,0.00,SomeHackedPerlScript,2013-05-12 22:26:00,
2013-05-12 18:31:00,40.9,27.4,30.01,NNW,327,10.5,15.7,58,0.00,,,0.00,SomeHackedPerlScript,2013-05-12 22:31:00,
2013-05-12 18:36:00,40.9,26.4,30.01,NNE,28,8.5,16.3,55,0.00,,,0.00,SomeHackedPerlScript,2013-05-12 22:36:00,
2013-05-12 18:41:00,41.1,26.8,30.02,NW,325,9.4,18.7,56,0.00,,,0.00,SomeHackedPerlScript,2013-05-12 22:41:00,
2013-05-12 18:46:00,41.2,26.4,30.02,WNW,287,4.2,12.8,55,0.00,,,0.00,SomeHackedPerlScript,2013-05-12 22:46:00,
2013-05-12 18:51:00,41.1,26.2,30.02,NNW,342,8.7,15.2,55,0.00,,,0.00,SomeHackedPerlScript,2013-05-12 22:51:00,
2013-05-12 18:56:00,41.2,26.3,30.02,North,1,2.2,13.6,55,0.00,,,0.00,SomeHackedPerlScript,2013-05-12 22:56:00,
2013-05-12 19:01:00,41.2,26.4,30.02,NE,48,2.9,11.1,55,0.00,,,0.00,SomeHackedPerlScript,2013-05-12 23:01:00,
2013-05-12 19:06:00,41.2,26.3,30.02,WSW,256,2.0,8.7,55,0.00,,,0.00,SomeHackedPerlScript,2013-05-12 23:06:00,
2013-05-12 19:11:00,41.0,25.8,30.02,SW,227,8.0,13.9,54,0.00,,,0.00,SomeHackedPerlScript,2013-05-12 23:11:00,
2013-05-12 19:16:00,41.0,26.2,30.02,North,359,8.4,10.8,55,0.00,,,0.00,SomeHackedPerlScript,2013-05-12 23:16:00,
2013-05-12 19:21:00,40.9,26.5,30.02,East,99,5.6,11.8,56,0.00,,,0.00,SomeHackedPerlScript,2013-05-12 23:21:00,
2013-05-12 19:26:00,40.6,25.6,30.03,South,190,5.2,14.4,54,0.00,,,0.00,SomeHackedPerlScript,2013-05-12 23:26:00,
2013-05-12 19:31:00,40.8,26.3,30.03,North,7,6.4,13.8,55,0.00,,,0.00,SomeHackedPerlScript,2013-05-12 23:31:00,
2013-05-12 19:36:00,40.8,26.6,30.03,NNW,345,5.6,17.2,56,0.00,,,0.00,SomeHackedPerlScript,2013-05-12 23:36:00,
2013-05-12 19:41:00,40.7,25.7,30.03,WNW,299,7.7,14.3,54,0.00,,,0.00,SomeHackedPerlScript,2013-05-12 23:41:00,
2013-05-12 19:46:00,40.8,25.8,30.03,NW,325,5.6,14.1,54,0.00,,,0.00,SomeHackedPerlScript,2013-05-12 23:46:00,
2013-05-12 19:51:00,40.8,25.8,30.03,East,83,1.1,17.3,54,0.00,,,0.00,SomeHackedPerlScript,2013-05-12 23:51:00,
2013-05-12 19:56:00,40.6,25.5,30.03,NW,325,6.7,12.4,54,0.00,,,0.00,SomeHackedPerlScript,2013-05-12 23:56:00,
2013-05-12 20:01:00,40.8,26.3,30.03,NNE,17,7.3,9.2,55,0.00,,,0.00,SomeHackedPerlScript,2013-05-13 00:01:00,
2013-05-12 20:06:00,40.9,26.3,30.02,North,356,0.9,9.6,55,0.00,,,0.00,SomeHackedPerlScript,2013-05-13 00:06:00,
2013-05-12 20:11:00,40.7,26.4,30.03,North,352,0.0,10.0,56,0.00,,,0.00,SomeHackedPerlScript,2013-05-13 00:11:00,
2013-05-12 20:16:00,40.6,26.4,30.03,NNW,346,6.0,9.8,56,0.00,,,0.00,SomeHackedPerlScript,2013-05-13 00:16:00,
2013-05-12 20:21:00,40.7,26.6,30.03,NW,317,4.2,10.5,56,0.00,,,0.00,SomeHackedPerlScript,2013-05-13 00:21:00,
2013-05-12 20:26:00,40.5,26.7,30.03,NNW,341,5.4,9.4,57,0.00,,,0.00,SomeHackedPerlScript,2013-05-13 00:26:00,
2013-05-12 20:31:00,40.3,26.4,30.03,NNW,343,1.1,10.2,57,0.00,,,0.00,SomeHackedPerlScript,2013-05-13 00:31:00,
2013-05-12 20:36:00,40.3,26.5,30.03,WSW,251,3.1,6.0,57,0.00,,,0.00,SomeHackedPerlScript,2013-05-13 00:36:00,
2013-05-12 20:41:00,40.0,26.6,30.03,ENE,59,2.7,8.1,58,0.00,,,0.00,SomeHackedPerlScript,2013-05-13 00:41:00,
2013-05-12 20:46:00,39.8,26.5,30.03,NW,320,0.9,8.5,58,0.00,,,0.00,SomeHackedPerlScript,2013-05-13 00:46:00,
2013-05-12 20:51:00,39.7,26.6,30.03,WNW,300,2.3,7.3,59,0.00,,,0.00,SomeHackedPerlScript,2013-05-13 00:51:00,
2013-05-12 20:56:00,39.6,26.7,30.03,NW,326,0.0,4.5,59,0.00,,,0.00,SomeHackedPerlScript,2013-05-13 00:56:00,
2013-05-12 21:01:00,39.4,26.4,30.03,North,8,1.7,7.0,59,0.00,,,0.00,SomeHackedPerlScript,2013-05-13 01:01:00,
2013-05-12 21:06:00,39.2,26.3,30.03,NW,311,0.0,8.0,59,0.00,,,0.00,SomeHackedPerlScript,2013-05-13 01:06:00,
2013-05-12 21:11:00,39.1,26.4,30.03,North,357,0.0,7.9,60,0.00,,,0.00,SomeHackedPerlScript,2013-05-13 01:11:00,
2013-05-12 21:16:00,38.9,27.0,30.03,North,357,0.0,0.0,62,0.00,,,0.00,SomeHackedPerlScript,2013-05-13 01:16:00,
2013-05-12 21:21:00,38.7,26.6,30.04,North,357,0.0,0.0,61,0.00,,,0.00,SomeHackedPerlScript,2013-05-13 01:21:00,
2013-05-12 21:26:00,38.5,27.0,30.04,NNE,28,0.0,3.9,63,0.00,,,0.00,SomeHackedPerlScript,2013-05-13 01:26:00,
2013-05-12 21:31:00,38.3,27.2,30.04,NNE,28,0.0,0.0,63,0.00,,,0.00,SomeHackedPerlScript,2013-05-13 01:31:00,
2013-05-12 21:36:00,38.0,27.0,30.04,NNE,28,0.0,0.0,64,0.00,,,0.00,SomeHackedPerlScript,2013-05-13 01:36:00,
2013-05-12 21:41:00,37.7,27.0,30.04,NNE,28,0.0,0.0,65,0.00,,,0.00,SomeHackedPerlScript,2013-05-13 01:41:00,
2013-05-12 21:46:00,37.3,26.9,30.04,NNE,28,0.0,0.0,65,0.00,,,0.00,SomeHackedPerlScript,2013-05-13 01:46:00,
2013-05-12 21:51:00,37.0,27.1,30.05,NNE,28,0.0,0.0,67,0.00,,,0.00,SomeHackedPerlScript,2013-05-13 01:51:00,
2013-05-12 21:56:00,36.6,27.0,30.05,NNE,28,0.0,0.0,68,0.00,,,0.00,SomeHackedPerlScript,2013-05-13 01:56:00,
2013-05-12 22:01:00,36.2,27.0,30.05,NNE,28,0.0,0.0,69,0.00,,,0.00,SomeHackedPerlScript,2013-05-13 02:01:00,
2013-05-12 22:06:00,35.9,27.5,30.05,NNE,28,0.0,0.0,71,0.00,,,0.00,SomeHackedPerlScript,2013-05-13 02:06:00,
2013-05-12 22:11:00,35.7,27.5,30.05,NNE,28,0.0,0.0,71,0.00,,,0.00,SomeHackedPerlScript,2013-05-13 02:11:00,
2013-05-12 22:16:00,35.4,27.4,30.06,NNE,28,0.0,0.0,72,0.00,,,0.00,SomeHackedPerlScript,2013-05-13 02:16:00,
2013-05-12 22:21:00,35.1,27.4,30.06,NNE,28,0.0,0.0,73,0.00,,,0.00,SomeHackedPerlScript,2013-05-13 02:21:00,
2013-05-12 22:26:00,34.7,27.1,30.06,NNE,28,0.0,0.0,73,0.00,,,0.00,SomeHackedPerlScript,2013-05-13 02:26:00,
2013-05-12 22:31:00,34.4,27.4,30.06,NNE,28,0.0,0.0,75,0.00,,,0.00,SomeHackedPerlScript,2013-05-13 02:31:00,
2013-05-12 22:36:00,34.1,27.4,30.06,North,5,0.0,3.2,76,0.00,,,0.00,SomeHackedPerlScript,2013-05-13 02:36:00,
2013-05-12 22:41:00,34.1,27.6,30.06,North,5,0.0,0.0,76,0.00,,,0.00,SomeHackedPerlScript,2013-05-13 02:41:00,
2013-05-12 22:46:00,34.1,27.5,30.06,NW,320,0.0,2.0,76,0.00,,,0.00,SomeHackedPerlScript,2013-05-13 02:46:00,
2013-05-12 22:51:00,34.1,27.4,30.06,WNW,285,0.0,3.7,76,0.00,,,0.00,SomeHackedPerlScript,2013-05-13 02:51:00,
2013-05-12 22:56:00,34.2,27.4,30.06,SW,223,0.0,1.9,75,0.00,,,0.00,SomeHackedPerlScript,2013-05-13 02:56:00,
2013-05-12 23:01:00,34.4,27.5,30.06,SW,223,0.0,0.0,75,0.00,,,0.00,SomeHackedPerlScript,2013-05-13 03:01:00,
2013-05-12 23:06:00,34.3,27.5,30.06,SW,223,0.0,0.0,75,0.00,,,0.00,SomeHackedPerlScript,2013-05-13 03:06:00,
2013-05-12 23:11:00,34.3,27.3,30.06,SW,223,0.0,0.0,75,0.00,,,0.00,SomeHackedPerlScript,2013-05-13 03:11:00,
2013-05-12 23:16:00,34.1,27.3,30.06,SW,223,0.0,0.0,75,0.00,,,0.00,SomeHackedPerlScript,2013-05-13 03:16:00,
2013-05-12 23:21:00,34.0,27.2,30.06,SW,223,0.0,0.0,75,0.00,,,0.00,SomeHackedPerlScript,2013-05-13 03:21:00,
2013-05-12 23:26:00,33.8,27.1,30.06,SW,223,0.0,0.0,76,0.00,,,0.00,SomeHackedPerlScript,2013-05-13 03:26:00,
2013-05-12 23:31:00,33.6,27.2,30.06,SW,223,0.0,0.0,77,0.00,,,0.00,SomeHackedPerlScript,2013-05-13 03:31:00,
2013-05-12 23:36:00,33.4,27.3,30.06,SW,223,0.0,0.0,78,0.00,,,0.00,SomeHackedPerlScript,2013-05-13 03:36:00,
2013-05-12 23:41:00,33.2,27.4,30.06,SW,223,0.0,0.0,79,0.00,,,0.00,SomeHackedPerlScript,2013-05-13 03:41:00,
2013-05-12 23:46:00,33.0,27.4,30.06,SW,223,0.0,0.0,79,0.00,,,0.00,SomeHackedPerlScript,2013-05-13 03:46:00,
2013-05-12 23:51:00,32.7,27.4,30.06,SW,223,0.0,0.0,80,0.00,,,0.00,SomeHackedPerlScript,2013-05-13 03:51:00,
2013-05-12 23:56:00,32.6,27.4,30.06,SW,223,0.0,0.0,80,0.00,,,0.00,SomeHackedPerlScript,2013-05-13 03:56:00,